Portada
METAR-TAF:

METAR-TAF

Aeroports :

Làrnaca, Xipre

latitud: 34-53N, longitud: 033-38E, altitud: 2 m

Observació

L'informe es va fer fa 17 minuts, a les 23:00 UTC
Vent 3 kt del Oest/Nord-Oest, variant entre Oest i Nord/Nord-Oest
Temperatura 23°C
Humitat 36%
Pressió 1009 hPa
Visibilitat 10 km o més
sense núvols per sota de 1500 mi sense presència de cumulonimbus.

METAR: LCLK 062300Z 30003KT 270V330 CAVOK 23/07 Q1009 NOSIG

Hora: 02:17 (23:17 UTC)

Pronòstic

L'informe es va fer fa 5 hores i 47 minuts, a les 17:30 UTC
Pronòstic vàlid del 06 a les 18 UTC al 07 a les 18 UTC
Vent 6 kt del Nord-Oest
Visibilitat 10 km o més
sense núvols per sota de 1500 mi sense presència de cumulonimbus.
Evolucionant progressivament
l' 07 a les 08 UTC al 07 a les 12 UTC
Vent 13 kt del Sud/Sud-Oest
Evolucionant progressivament
l' 07 a les 15 UTC al 07 a les 18 UTC
Vent 6 kt del Nord-Oest

TAF: LCLK 061730Z 0618/0718 32006KT CAVOK BECMG 0708/0712 21013KT BECMG 0715/0718 32006KT

Observacions i pronòstics meteorològics de més de 4000 aeroports (METAR i TAF).

Les estacions disponibles són els punts grocs i vermells al mapa.

Posi el ratolí al punt desitjat per veure el nom de l'estació.

Feu clic per veure les observacions i els pronòstics meteorològics.

Per canviar el mapa: feu clic els botons verds amb una creu de color negre per apropar; al botó verd amb un guió per allunyar la imatge; o en les fletxes verdes per a mapes adjacents.


METAR-TAF: